Homer Airport Homer US
ICAO: PAHO
IATA:
Category: Medium
Scheduled Services:

Elevation: 84 ft
TransAlt. 18000 ft.

Airport Communications:
ASOS:135.65
ANCHORAGE CNTR:125.9
CTAF:123.6
RDO:123.6
TWEB:114.6
KENAI RDO:123.6
UNICOM:123.05

PAHO Zoom In..

If you have problems with the map follow the link
https://www.worldairports.se/pages/airport.php?
ICAO=PAHO

Runways:

(A) RW 04 length 6701 ft width 150 ft
LOC 109.30 / hdg 38

(B) RW 22 length 6701 ft width 150 ft
LOC 109.30 / hdg 218

Location; PAHO
Day. 16 / Time. 11.53 Zulu
* Altimeter: 30.02
* Temperature: 07° c. 44.6°f.
* Wind from: 050° Speed 10 kn.
Dewpoint: 02° c.
Visibility: 10 Statute Miles.
Clouds: Broken 5000 ft.
Clouds: Overcast 6000 ft.
Conditions: Light Rain.

PAHO 161153Z AUTO 05010KT 10SM -RA BKN050 OVC060 07/02 A3002 RMK AO2 RAB49 SLP166 P0000 60000 T00720022 10072 21011 58014 TSNO


Wind From 050°
Speed 10 kn.

 
 
jpsmedia.com for Web Design worldairports.se 2018   terms of use